Time;durP1;ratioP1;P1;durP2;ratioP2;P2;SDS_P1;SDS_P2;PMS_P1;PMS_P2;Temp;Humidity;BMP_temperature;BMP_pressure;BME280_temperature;BME280_humidity;BME280_pressure;Samples;Min_cycle;Max_cycle;Signal;HPM_P1;HPM_P2
2022/03/26 00:01:48;;;;;;;;;;;;;;;;;;4406337;32;20525;-77
2022/03/26 00:04:13;;;;;;;46.77;26.60;;;;;;;;;;4405953;32;19941;-78
2022/03/26 00:06:38;;;;;;;;;;;;;;;;;;4406525;32;20022;-77
2022/03/26 00:09:04;;;;;;;46.03;25.05;;;;;;;;;;4405630;32;19941;-78
2022/03/26 00:11:29;;;;;;;;;;;;;;;;;;4406999;32;20114;-79
2022/03/26 00:13:55;;;;;;;48.60;26.98;;;;;;;;;;4405556;32;19956;-78
2022/03/26 00:16:20;;;;;;;;;;;;;;;;;;4405802;32;20340;-76
2022/03/26 00:18:45;;;;;;;52.15;27.67;;;;;;;;;;4404355;32;20275;-79
2022/03/26 00:21:10;;;;;;;;;;;;;;;;;;4406374;32;20019;-78
2022/03/26 00:23:38;;;;;;;50.75;27.27;;;;;;;;;;4406226;32;19937;-78
2022/03/26 00:26:04;;;;;;;49.47;29.48;;;;;;;;;;4405316;32;20480;-77
2022/03/26 00:28:29;;;;;;;;;;;;;;;;;;4405665;32;20027;-77
2022/03/26 00:30:54;;;;;;;51.13;28.80;;;;;;;;;;4405459;32;19933;-78
2022/03/26 00:33:19;;;;;;;;;;;;;;;;;;4405645;32;20045;-78
2022/03/26 00:35:46;;;;;;;48.75;26.55;;;;;;;;;;4405401;32;19952;-78
2022/03/26 00:38:11;;;;;;;56.85;29.25;;;;;;;;;;4405143;32;20191;-79
2022/03/26 00:40:37;;;;;;;;;;;;;;;;;;4405674;32;20027;-78
2022/03/26 00:43:02;;;;;;;51.42;28.45;;;;;;;;;;4405894;32;20292;-78
2022/03/26 00:45:29;;;;;;;;;;;;;;;;;;4404463;32;20088;-78
2022/03/26 00:47:55;;;;;;;55.97;28.20;;;;;;;;;;4405951;32;19942;-78
2022/03/26 00:50:20;;;;;;;51.40;29.73;;;;;;;;;;4405233;32;20137;-78
2022/03/26 00:52:45;;;;;;;;;;;;;;;;;;4405836;32;20071;-79
2022/03/26 00:55:11;;;;;;;55.70;29.87;;;;;;;;;;4405058;32;19956;-78
2022/03/26 00:57:36;;;;;;;;;;;;;;;;;;4405948;32;20034;-78
2022/03/26 01:00:03;;;;;;;52.13;30.52;;;;;;;;;;4405135;32;19956;-78
2022/03/26 01:02:28;;;;;;;57.08;30.92;;;;;;;;;;4404145;32;20125;-78
2022/03/26 01:04:53;;;;;;;;;;;;;;;;;;4406027;32;20104;-78
2022/03/26 01:07:21;;;;;;;56.55;30.65;;;;;;;;;;4404963;32;19953;-79
2022/03/26 01:09:47;;;;;;;56.47;31.45;;;;;;;;;;4404874;32;20130;-79
2022/03/26 01:12:12;;;;;;;;;;;;;;;;;;4405531;32;20525;-79
2022/03/26 01:14:38;;;;;;;60.60;30.92;;;;;;;;;;4404743;32;20024;-78
2022/03/26 01:17:03;;;;;;;;;;;;;;;;;;4409020;32;20072;-77
2022/03/26 01:19:28;;;;;;;60.88;31.33;;;;;;;;;;4408882;32;19984;-78
2022/03/26 01:21:53;;;;;;;;;;;;;;;;;;4409179;32;20134;-79
2022/03/26 01:24:21;;;;;;;59.63;31.25;;;;;;;;;;4408462;32;19970;-79
2022/03/26 01:26:47;;;;;;;66.12;32.97;;;;;;;;;;4408396;32;20142;-79
2022/03/26 01:29:12;;;;;;;;;;;;;;;;;;4408312;32;20473;-78
2022/03/26 01:31:37;;;;;;;64.68;32.97;;;;;;;;;;4408082;32;19991;-78
2022/03/26 01:34:03;;;;;;;;;;;;;;;;;;4408561;32;20030;-77
2022/03/26 01:36:28;;;;;;;64.25;33.95;;;;;;;;;;4407795;32;19968;-78
2022/03/26 01:38:53;;;;;;;;;;;;;;;;;;4407771;32;20192;-80
2022/03/26 01:41:22;;;;;;;57.17;32.97;;;;;;;;;;4407519;32;19956;-78
2022/03/26 01:43:47;;;;;;;63.65;32.75;;;;;;;;;;4408329;32;20134;-78
2022/03/26 01:46:12;;;;;;;;;;;;;;;;;;4408636;32;20384;-75
2022/03/26 01:48:38;;;;;;;59.78;32.78;;;;;;;;;;4408796;32;20022;-80
2022/03/26 01:51:16;;;;;;;60.60;34.28;;;;;;;;;;4407517;32;20030;-79
2022/03/26 01:53:46;;;;;;;57.13;33.05;;;;;;;;;;4408065;32;20026;-79
2022/03/26 01:56:12;;;;;;;60.60;33.90;;;;;;;;;;4407835;32;20022;-78
2022/03/26 01:58:40;;;;;;;57.83;32.10;;;;;;;;;;4407677;32;20046;-78
2022/03/26 02:01:06;;;;;;;57.13;31.75;;;;;;;;;;4407649;32;20372;-78
2022/03/26 02:03:31;;;;;;;;;;;;;;;;;;4408098;32;20021;-78
2022/03/26 02:05:57;;;;;;;58.70;33.00;;;;;;;;;;4407350;32;20319;-79
2022/03/26 02:08:22;;;;;;;;;;;;;;;;;;4407395;32;20030;-79
2022/03/26 02:10:47;;;;;;;56.60;30.73;;;;;;;;;;4407527;32;20022;-78
2022/03/26 02:13:13;;;;;;;;;;;;;;;;;;4408154;32;20023;-78
2022/03/26 02:15:38;;;;;;;57.40;33.40;;;;;;;;;;4408063;32;19977;-78
2022/03/26 02:18:03;;;;;;;;;;;;;;;;;;4407854;32;20204;-78
2022/03/26 02:20:28;;;;;;;60.97;31.40;;;;;;;;;;4407958;32;19992;-78
2022/03/26 02:22:54;;;;;;;;;;;;;;;;;;4407772;32;20145;-79
2022/03/26 02:25:19;;;;;;;59.70;30.12;;;;;;;;;;4407430;32;19990;-79
2022/03/26 02:27:45;;;;;;;;;;;;;;;;;;4407811;32;20415;-80
2022/03/26 02:30:10;;;;;;;60.10;32.53;;;;;;;;;;4406189;32;20326;-78
2022/03/26 02:32:35;;;;;;;;;;;;;;;;;;4406366;32;20379;-79
2022/03/26 02:35:01;;;;;;;58.42;31.48;;;;;;;;;;4407559;32;20367;-78
2022/03/26 02:37:26;;;;;;;;;;;;;;;;;;4408065;32;20090;-79
2022/03/26 02:39:51;;;;;;;62.05;31.65;;;;;;;;;;4406738;32;19938;-78
2022/03/26 02:42:16;;;;;;;;;;;;;;;;;;4407529;32;20049;-78
2022/03/26 02:44:42;;;;;;;60.35;34.75;;;;;;;;;;4406952;32;19957;-78
2022/03/26 02:47:08;;;;;;;;;;;;;;;;;;4407672;32;20062;-78
2022/03/26 02:49:33;;;;;;;54.53;30.50;;;;;;;;;;4408213;32;19937;-78
2022/03/26 02:51:58;;;;;;;;;;;;;;;;;;4405946;32;20048;-78
2022/03/26 02:54:23;;;;;;;66.40;34.78;;;;;;;;;;4407709;32;19981;-79
2022/03/26 02:56:49;;;;;;;;;;;;;;;;;;4407060;32;20048;-77
2022/03/26 02:59:14;;;;;;;55.78;31.58;;;;;;;;;;4407026;32;19937;-77
2022/03/26 03:01:39;;;;;;;57.75;31.83;;;;;;;;;;4405374;32;20186;-78
2022/03/26 03:04:04;;;;;;;;;;;;;;;;;;4407286;32;20094;-74
2022/03/26 03:06:30;;;;;;;66.35;33.97;;;;;;;;;;4406658;32;19948;-77
2022/03/26 03:08:55;;;;;;;;;;;;;;;;;;4405757;32;20034;-77
2022/03/26 03:11:21;;;;;;;58.53;32.42;;;;;;;;;;4405844;32;19948;-78
2022/03/26 03:13:46;;;;;;;;;;;;;;;;;;4406677;32;20126;-79
2022/03/26 03:16:12;;;;;;;64.95;34.50;;;;;;;;;;4407657;32;19938;-78
2022/03/26 03:18:37;;;;;;;;;;;;;;;;;;4406845;32;20061;-79
2022/03/26 03:21:02;;;;;;;62.83;33.72;;;;;;;;;;4405892;32;19971;-78
2022/03/26 03:23:27;;;;;;;;;;;;;;;;;;4407451;32;20107;-77
2022/03/26 03:25:53;;;;;;;66.22;34.03;;;;;;;;;;4406221;32;19948;-78
2022/03/26 03:28:18;;;;;;;;;;;;;;;;;;4407439;32;20065;-79
2022/03/26 03:30:43;;;;;;;69.40;35.03;;;;;;;;;;4406875;32;20000;-78
2022/03/26 03:33:08;;;;;;;;;;;;;;;;;;4407478;32;20094;-78
2022/03/26 03:35:34;;;;;;;79.35;37.28;;;;;;;;;;4405008;32;19974;-78
2022/03/26 03:37:59;;;;;;;;;;;;;;;;;;4404762;32;20172;-78
2022/03/26 03:40:24;;;;;;;69.62;35.92;;;;;;;;;;4406377;32;20294;-78
2022/03/26 03:42:49;;;;;;;;;;;;;;;;;;4405159;32;20026;-78
2022/03/26 03:45:15;;;;;;;69.35;38.85;;;;;;;;;;4406309;32;20290;-78
2022/03/26 03:47:40;;;;;;;;;;;;;;;;;;4407375;32;20466;-79
2022/03/26 03:50:05;;;;;;;78.32;39.03;;;;;;;;;;4406014;32;19938;-77
2022/03/26 03:52:31;;;;;;;;;;;;;;;;;;4406495;32;20081;-78
2022/03/26 03:54:56;;;;;;;78.10;40.83;;;;;;;;;;4406281;32;20025;-78
2022/03/26 03:57:21;;;;;;;;;;;;;;;;;;4406466;32;20379;-78
2022/03/26 03:59:46;;;;;;;83.50;40.15;;;;;;;;;;4404660;32;19983;-79
2022/03/26 04:02:11;;;;;;;;;;;;;;;;;;4406971;32;20127;-78
2022/03/26 04:04:40;;;;;;;76.93;40.58;;;;;;;;;;4405671;32;19996;-78
2022/03/26 04:07:07;;;;;;;83.57;42.38;;;;;;;;;;4407120;32;20018;-78
2022/03/26 04:09:32;;;;;;;77.68;39.25;;;;;;;;;;4404720;32;20441;-78
2022/03/26 04:11:57;;;;;;;;;;;;;;;;;;4406435;32;20057;-78
2022/03/26 04:14:22;;;;;;;79.35;41.30;;;;;;;;;;4405577;32;19955;-78
2022/03/26 04:16:47;;;;;;;;;;;;;;;;;;4406610;32;20550;-78
2022/03/26 04:19:13;;;;;;;88.53;41.97;;;;;;;;;;4406732;32;19948;-78
2022/03/26 04:21:38;;;;;;;;;;;;;;;;;;4406576;32;20022;-78
2022/03/26 04:24:03;;;;;;;83.80;42.67;;;;;;;;;;4406598;32;19933;-77
2022/03/26 04:26:28;;;;;;;;;;;;;;;;;;4406476;32;20134;-77
2022/03/26 04:28:53;;;;;;;83.57;45.60;;;;;;;;;;4405566;32;19948;-78
2022/03/26 04:31:19;;;;;;;87.88;43.65;;;;;;;;;;4405808;32;20123;-78
2022/03/26 04:33:44;;;;;;;;;;;;;;;;;;4406320;32;20330;-78
2022/03/26 04:36:09;;;;;;;89.65;44.53;;;;;;;;;;4405652;32;19930;-77
2022/03/26 04:38:36;;;;;;;;;;;;;;;;;;4404544;32;20163;-78
2022/03/26 04:41:01;;;;;;;92.15;46.67;;;;;;;;;;4405339;32;19942;-79
2022/03/26 04:43:27;;;;;;;;;;;;;;;;;;4405679;32;20034;-78
2022/03/26 04:45:52;;;;;;;91.65;47.05;;;;;;;;;;4405286;32;19941;-78
2022/03/26 04:48:17;;;;;;;;;;;;;;;;;;4404373;32;20088;-78
2022/03/26 04:50:42;;;;;;;89.07;47.42;;;;;;;;;;4404830;32;19951;-78
2022/03/26 04:53:09;;;;;;;;;;;;;;;;;;4405517;32;20062;-78
2022/03/26 04:55:34;;;;;;;99.70;51.03;;;;;;;;;;4403938;32;20372;-77
2022/03/26 04:57:59;;;;;;;;;;;;;;;;;;4406106;32;20022;-78
2022/03/26 05:00:24;;;;;;;102.00;49.70;;;;;;;;;;4403996;32;19948;-77
2022/03/26 05:02:50;;;;;;;;;;;;;;;;;;4406301;32;20027;-78
2022/03/26 05:05:15;;;;;;;98.68;49.47;;;;;;;;;;4405678;32;19952;-76
2022/03/26 05:07:47;;;;;;;;;;;;;;;;;;4405861;32;20176;-79
2022/03/26 05:10:14;;;;;;;102.55;50.95;;;;;;;;;;4405502;32;19941;-78
2022/03/26 05:12:39;;;;;;;107.07;53.38;;;;;;;;;;4404968;32;20030;-78
2022/03/26 05:15:05;;;;;;;;;;;;;;;;;;4405071;32;20060;-78
2022/03/26 05:17:30;;;;;;;104.32;54.03;;;;;;;;;;4404007;32;20320;-77
2022/03/26 05:19:55;;;;;;;;;;;;;;;;;;4404324;32;20030;-77
2022/03/26 05:22:20;;;;;;;99.70;53.05;;;;;;;;;;4405210;32;19951;-75
2022/03/26 05:24:46;;;;;;;;;;;;;;;;;;4405575;32;20156;-78
2022/03/26 05:27:11;;;;;;;103.38;53.87;;;;;;;;;;4405592;32;20293;-79
2022/03/26 05:29:36;;;;;;;;;;;;;;;;;;4405668;32;20038;-77
2022/03/26 05:32:02;;;;;;;109.40;54.45;;;;;;;;;;4404371;32;19941;-78
2022/03/26 05:34:27;;;;;;;;;;;;;;;;;;4405410;32;20184;-77
2022/03/26 05:36:52;;;;;;;104.03;51.47;;;;;;;;;;4405096;32;19934;-77
2022/03/26 05:39:17;;;;;;;;;;;;;;;;;;4404915;32;20082;-76
2022/03/26 05:41:50;;;;;;;104.87;51.97;;;;;;;;;;4405289;32;19938;-79
2022/03/26 05:44:16;;;;;;;106.57;52.90;;;;;;;;;;4403757;32;20492;-78
2022/03/26 05:46:41;;;;;;;;;;;;;;;;;;4405487;32;20061;-78
2022/03/26 05:49:10;;;;;;;106.68;54.40;;;;;;;;;;4405210;32;19937;-79
2022/03/26 05:51:36;;;;;;;104.87;53.13;;;;;;;;;;4405025;32;20030;-77
2022/03/26 05:54:03;;;;;;;;;;;;;;;;;;4405037;32;20076;-78
2022/03/26 05:56:30;;;;;;;116.30;53.90;;;;;;;;;;4403457;32;19968;-78
2022/03/26 05:59:01;;;;;;;125.22;57.42;;;;;;;;;;4404040;32;20045;-79
2022/03/26 06:01:27;;;;;;;113.10;57.40;;;;;;;;;;4405785;32;20023;-79
2022/03/26 06:03:52;;;;;;;;;;;;;;;;;;4408056;32;20375;-78
2022/03/26 06:06:20;;;;;;;110.30;52.42;;;;;;;;;;4407753;32;19969;-78
2022/03/26 06:08:47;;;;;;;108.20;56.13;;;;;;;;;;4407908;32;20399;-79
2022/03/26 06:11:13;;;;;;;110.30;57.42;;;;;;;;;;4408579;32;20022;-78
2022/03/26 06:14:23;;;;;;;;;;;;;;;;;;4408229;32;20089;-78
2022/03/26 06:16:23;;;;;;;110.45;52.58;;;;;;;;;;4401866;32;20323;-79
2022/03/26 06:18:48;;;;;;;;;;;;;;;;;;4408689;32;20018;-79
2022/03/26 06:21:13;;;;;;;101.57;52.15;;;;;;;;;;4405851;32;19955;-77
2022/03/26 06:23:39;;;;;;;;;;;;;;;;;;4407444;32;20480;-78
2022/03/26 06:26:04;;;;;;;107.12;55.33;;;;;;;;;;4406457;32;19956;-79
2022/03/26 06:28:29;;;;;;;;;;;;;;;;;;4407267;32;20068;-75
2022/03/26 06:30:54;;;;;;;98.78;49.90;;;;;;;;;;4406890;32;19937;-77
2022/03/26 06:33:27;;;;;;;;;;;;;;;;;;4407159;32;20332;-78
2022/03/26 06:35:55;;;;;;;103.38;52.40;;;;;;;;;;4407220;32;20112;-78
2022/03/26 06:38:21;;;;;;;110.12;53.40;;;;;;;;;;4405679;32;20467;-77
2022/03/26 06:40:46;;;;;;;;;;;;;;;;;;4406056;32;20026;-78
2022/03/26 06:43:11;;;;;;;93.68;48.38;;;;;;;;;;4407026;32;19952;-78
2022/03/26 06:45:36;;;;;;;;;;;;;;;;;;4407130;32;20360;-79
2022/03/26 06:48:02;;;;;;;94.97;50.92;;;;;;;;;;4408378;32;19942;-78
2022/03/26 06:50:27;;;;;;;;;;;;;;;;;;4407112;32;20062;-77
2022/03/26 06:52:52;;;;;;;93.87;48.05;;;;;;;;;;4395089;32;19938;-78
2022/03/26 06:55:17;;;;;;;;;;;;;;;;;;4391898;32;20089;-79
2022/03/26 06:57:43;;;;;;;87.43;46.83;;;;;;;;;;4392287;32;19942;-77
2022/03/26 07:00:11;;;;;;;;;;;;;;;;;;4391998;32;20096;-78
2022/03/26 07:02:36;;;;;;;88.32;44.60;;;;;;;;;;4391977;32;19938;-78
2022/03/26 07:05:01;;;;;;;;;;;;;;;;;;4391702;32;20462;-78
2022/03/26 07:07:27;;;;;;;88.43;44.65;;;;;;;;;;4391427;32;19948;-78
2022/03/26 07:09:52;;;;;;;;;;;;;;;;;;4391380;32;20423;-78
2022/03/26 07:12:18;;;;;;;86.93;45.03;;;;;;;;;;4389520;32;19969;-78
2022/03/26 07:14:44;;;;;;;;;;;;;;;;;;4391457;32;20111;-78
2022/03/26 07:17:09;;;;;;;84.30;42.85;;;;;;;;;;4391522;32;19953;-78
2022/03/26 07:19:34;;;;;;;;;;;;;;;;;;4392031;32;20314;-78
2022/03/26 07:22:00;;;;;;;80.95;43.87;;;;;;;;;;4391038;32;19938;-79
2022/03/26 07:24:25;;;;;;;;;;;;;;;;;;4391390;32;20051;-79
2022/03/26 07:26:50;;;;;;;69.93;38.45;;;;;;;;;;4397707;32;19933;-78
2022/03/26 07:29:16;;;;;;;;;;;;;;;;;;4406559;32;20086;-79
2022/03/26 07:31:41;;;;;;;69.68;39.22;;;;;;;;;;4406446;32;19937;-78
2022/03/26 07:34:06;;;;;;;;;;;;;;;;;;4407353;32;20048;-79
2022/03/26 07:36:32;;;;;;;75.53;40.38;;;;;;;;;;4405462;32;19995;-78
2022/03/26 07:39:03;;;;;;;77.15;41.00;;;;;;;;;;4406883;32;20207;-78
2022/03/26 07:41:28;;;;;;;76.12;40.40;;;;;;;;;;4407302;32;20087;-77
2022/03/26 07:43:53;;;;;;;;;;;;;;;;;;4406579;32;20022;-77
2022/03/26 07:46:19;;;;;;;65.47;38.85;;;;;;;;;;4406925;32;20376;-78
2022/03/26 07:48:44;;;;;;;;;;;;;;;;;;4406892;32;20444;-79
2022/03/26 07:51:09;;;;;;;71.90;35.95;;;;;;;;;;4406534;32;20283;-77
2022/03/26 07:53:34;;;;;;;;;;;;;;;;;;4409486;32;20468;-79
2022/03/26 07:56:02;;;;;;;73.68;39.25;;;;;;;;;;4421614;32;19945;-79
2022/03/26 07:58:27;;;;;;;73.97;39.65;;;;;;;;;;4420877;32;20398;-79
2022/03/26 08:00:52;;;;;;;;;;;;;;;;;;4422371;32;20017;-79
2022/03/26 08:03:18;;;;;;;72.82;37.75;;;;;;;;;;4419018;32;19937;-76
2022/03/26 08:05:43;;;;;;;;;;;;;;;;;;4406330;32;20122;-80
2022/03/26 08:08:08;;;;;;;66.75;39.15;;;;;;;;;;4406384;32;19973;-78
2022/03/26 08:10:33;;;;;;;;;;;;;;;;;;4406279;32;20118;-78
2022/03/26 08:13:04;;;;;;;70.70;40.38;;;;;;;;;;4405634;32;20315;-78
2022/03/26 08:15:30;;;;;;;73.00;42.00;;;;;;;;;;4405891;32;20122;-78
2022/03/26 08:17:55;;;;;;;;;;;;;;;;;;4405476;32;20396;-79
2022/03/26 08:20:20;;;;;;;71.07;39.72;;;;;;;;;;4405867;32;20299;-78
2022/03/26 08:22:45;;;;;;;;;;;;;;;;;;4405998;32;20022;-76
2022/03/26 08:25:10;;;;;;;72.18;39.95;;;;;;;;;;4405594;32;19970;-78
2022/03/26 08:27:36;;;;;;;;;;;;;;;;;;4405977;32;20056;-79
2022/03/26 08:30:01;;;;;;;77.75;41.15;;;;;;;;;;4405453;32;19937;-78
2022/03/26 08:32:26;;;;;;;;;;;;;;;;;;4405476;32;20038;-78
2022/03/26 08:34:52;;;;;;;74.12;41.17;;;;;;;;;;4405220;32;19946;-78
2022/03/26 08:37:17;;;;;;;;;;;;;;;;;;4405473;32;20141;-79
2022/03/26 08:39:42;;;;;;;76.60;40.67;;;;;;;;;;4405020;32;20311;-78
2022/03/26 08:42:08;;;;;;;77.50;37.67;;;;;;;;;;4404613;32;20107;-80
2022/03/26 08:44:33;;;;;;;;;;;;;;;;;;4404402;32;20022;-79
2022/03/26 08:47:02;;;;;;;73.30;38.00;;;;;;;;;;4405889;32;19967;-79
2022/03/26 08:49:28;;;;;;;62.97;35.47;;;;;;;;;;4404629;32;20030;-79
2022/03/26 08:52:01;;;;;;;65.40;35.75;;;;;;;;;;4405865;32;20030;-79
2022/03/26 08:54:26;;;;;;;61.70;35.40;;;;;;;;;;4405477;32;20022;-75
2022/03/26 08:56:52;;;;;;;58.53;34.22;;;;;;;;;;4405355;32;20022;-78
2022/03/26 08:59:17;;;;;;;;;;;;;;;;;;4405505;32;20091;-78
2022/03/26 09:01:42;;;;;;;64.50;34.03;;;;;;;;;;4404059;32;20280;-78
2022/03/26 09:04:11;;;;;;;;;;;;;;;;;;4405832;32;20058;-79
2022/03/26 09:06:36;;;;;;;56.60;31.45;;;;;;;;;;4405030;32;19941;-79
2022/03/26 09:09:04;;;;;;;54.75;31.85;;;;;;;;;;4404879;32;20095;-79
2022/03/26 09:11:30;;;;;;;65.28;36.85;;;;;;;;;;4405084;32;20132;-78
2022/03/26 09:13:55;;;;;;;65.97;34.22;;;;;;;;;;4404568;32;20035;-77
2022/03/26 09:16:21;;;;;;;59.17;33.58;;;;;;;;;;4405101;32;20031;-78
2022/03/26 09:18:46;;;;;;;51.20;30.02;;;;;;;;;;4405127;32;20030;-78
2022/03/26 09:21:11;;;;;;;54.30;31.58;;;;;;;;;;4405632;32;20053;-78
2022/03/26 09:23:39;;;;;;;49.28;28.92;;;;;;;;;;4405086;32;20050;-78
2022/03/26 09:26:05;;;;;;;58.55;32.70;;;;;;;;;;4405391;32;20023;-79
2022/03/26 09:28:30;;;;;;;60.70;33.95;;;;;;;;;;4404984;32;20329;-77
2022/03/26 09:30:55;;;;;;;;;;;;;;;;;;4405056;32;20043;-79
2022/03/26 09:33:21;;;;;;;64.57;36.78;;;;;;;;;;4405118;32;20217;-78
2022/03/26 09:35:46;;;;;;;;;;;;;;;;;;4406250;32;20122;-78
2022/03/26 09:38:11;;;;;;;62.95;36.22;;;;;;;;;;4407715;32;19938;-77
2022/03/26 09:40:37;;;;;;;;;;;;;;;;;;4408555;32;20392;-78
2022/03/26 09:43:02;;;;;;;57.13;32.25;;;;;;;;;;4407639;32;20384;-77
2022/03/26 09:45:27;;;;;;;53.47;32.30;;;;;;;;;;4406443;32;20076;-75
2022/03/26 09:47:53;;;;;;;;;;;;;;;;;;4406604;32;20027;-78
2022/03/26 09:50:19;;;;;;;50.00;27.80;;;;;;;;;;4407882;32;19976;-77
2022/03/26 09:52:45;;;;;;;51.63;28.95;;;;;;;;;;4407850;32;20026;-79
2022/03/26 09:55:11;;;;;;;52.33;28.92;;;;;;;;;;4407063;32;20171;-77
2022/03/26 09:57:37;;;;;;;44.28;26.50;;;;;;;;;;4407564;32;20407;-78
2022/03/26 10:00:02;;;;;;;49.65;29.30;;;;;;;;;;4408191;32;20056;-77
2022/03/26 10:02:27;;;;;;;;;;;;;;;;;;4407396;32;20471;-77
2022/03/26 10:04:53;;;;;;;46.27;28.47;;;;;;;;;;4407724;32;19938;-79
2022/03/26 10:07:18;;;;;;;;;;;;;;;;;;4407287;32;20554;-78
2022/03/26 10:09:45;;;;;;;45.05;26.50;;;;;;;;;;4407831;32;20375;-79
2022/03/26 10:12:17;;;;;;;45.67;28.38;;;;;;;;;;4407773;32;20399;-79
2022/03/26 10:14:51;;;;;;;47.95;27.42;;;;;;;;;;4407995;32;20031;-79
2022/03/26 10:17:27;;;;;;;44.13;27.52;;;;;;;;;;4407520;32;20049;-78
2022/03/26 10:19:54;;;;;;;44.17;26.87;;;;;;;;;;4407389;32;20465;-79
2022/03/26 10:22:23;;;;;;;48.22;27.42;;;;;;;;;;4407787;32;20128;-79
2022/03/26 10:24:48;;;;;;;52.50;30.37;;;;;;;;;;4407102;32;20092;-76
2022/03/26 10:27:14;;;;;;;55.03;29.60;;;;;;;;;;4407224;32;20098;-78
2022/03/26 10:29:39;;;;;;;;;;;;;;;;;;4407641;32;20031;-80
2022/03/26 10:35:09;;;;;;;48.25;29.37;;;;;;;;;;4391984;32;20036;-76
2022/03/26 10:37:43;;;;;;;48.53;28.05;;;;;;;;;;4392446;32;20418;-76
2022/03/26 10:40:16;;;;;;;47.65;28.08;;;;;;;;;;4390833;32;20066;-79
2022/03/26 10:42:41;;;;;;;49.53;29.23;;;;;;;;;;4392037;32;20046;-79
2022/03/26 10:45:12;;;;;;;59.00;32.13;;;;;;;;;;4392376;32;20364;-79
2022/03/26 10:47:38;;;;;;;58.00;33.55;;;;;;;;;;4390986;32;20454;-80
2022/03/26 10:50:04;;;;;;;56.95;34.35;;;;;;;;;;4390184;32;20027;-76
2022/03/26 10:52:30;;;;;;;54.60;32.45;;;;;;;;;;4392065;32;20046;-79
2022/03/26 10:54:55;;;;;;;59.90;35.63;;;;;;;;;;4391529;32;20060;-79
2022/03/26 10:57:27;;;;;;;57.05;35.47;;;;;;;;;;4391751;32;20026;-80
2022/03/26 10:59:52;;;;;;;49.72;33.65;;;;;;;;;;4392474;32;20044;-78
2022/03/26 11:02:18;;;;;;;64.15;37.00;;;;;;;;;;4391381;32;20082;-76
2022/03/26 11:04:43;;;;;;;60.63;36.97;;;;;;;;;;4391378;32;20098;-79
2022/03/26 11:07:11;;;;;;;59.75;33.58;;;;;;;;;;4391368;32;20018;-79
2022/03/26 11:09:43;;;;;;;64.10;34.50;;;;;;;;;;4390071;32;20106;-78
2022/03/26 11:12:10;;;;;;;54.40;32.65;;;;;;;;;;4405752;32;20061;-80
2022/03/26 11:14:40;;;;;;;64.20;34.00;;;;;;;;;;4406985;32;20045;-78
2022/03/26 11:17:18;;;;;;;69.78;37.58;;;;;;;;;;4406469;32;20018;-78
2022/03/26 11:20:02;;;;;;;65.50;35.75;;;;;;;;;;4406504;32;20089;-77
2022/03/26 11:22:31;;;;;;;62.08;35.67;;;;;;;;;;4406478;32;20420;-78
2022/03/26 11:25:02;;;;;;;66.05;35.97;;;;;;;;;;4404041;32;20460;-78
2022/03/26 11:27:39;;;;;;;62.58;37.75;;;;;;;;;;4391600;32;20398;-79
2022/03/26 11:30:29;;;;;;;71.85;40.92;;;;;;;;;;4391649;32;20019;-74
2022/03/26 11:32:55;;;;;;;70.55;42.70;;;;;;;;;;4390510;32;20040;-78
2022/03/26 11:35:21;;;;;;;66.37;39.22;;;;;;;;;;4390974;32;20027;-80
2022/03/26 11:37:54;;;;;;;73.28;41.15;;;;;;;;;;4389799;32;20113;-79
2022/03/26 11:40:39;;;;;;;67.80;40.00;;;;;;;;;;4390015;32;20106;-78
2022/03/26 11:43:04;;;;;;;70.07;42.00;;;;;;;;;;4391136;32;20098;-80
2022/03/26 11:51:20;;;;;;;63.75;37.08;;;;;;;;;;4400654;32;20046;-78
2022/03/26 11:53:48;;;;;;;61.30;36.50;;;;;;;;;;4406046;32;20470;-78
2022/03/26 11:56:27;;;;;;;58.38;34.78;;;;;;;;;;4405634;32;20023;-79
2022/03/26 11:59:02;;;;;;;65.22;38.80;;;;;;;;;;4406227;32;20359;-78
2022/03/26 12:01:34;;;;;;;61.40;35.70;;;;;;;;;;4406560;32;20022;-78
2022/03/26 12:04:07;;;;;;;56.92;33.17;;;;;;;;;;4406381;32;20058;-78
2022/03/26 12:06:40;;;;;;;62.38;33.50;;;;;;;;;;4406469;32;20018;-79
2022/03/26 12:09:05;;;;;;;58.13;34.05;;;;;;;;;;4406131;32;20060;-80
2022/03/26 12:11:34;;;;;;;54.97;33.17;;;;;;;;;;4406351;32;20416;-79
2022/03/26 12:14:01;;;;;;;60.75;33.22;;;;;;;;;;4405757;32;20089;-78
2022/03/26 12:16:46;;;;;;;46.30;25.37;;;;;;;;;;4405763;32;20109;-79
2022/03/26 12:19:11;;;;;;;38.10;21.27;;;;;;;;;;4390594;32;20030;-76
2022/03/26 12:21:48;;;;;;;37.58;20.50;;;;;;;;;;4390788;32;20053;-79
2022/03/26 12:24:17;;;;;;;44.40;24.25;;;;;;;;;;4388868;32;20463;-78
2022/03/26 12:26:48;;;;;;;41.03;22.08;;;;;;;;;;4401175;32;20083;-79
2022/03/26 12:29:14;;;;;;;39.22;23.52;;;;;;;;;;4404150;32;20438;-77
2022/03/26 12:31:42;;;;;;;42.45;23.87;;;;;;;;;;4404304;32;20026;-79
2022/03/26 12:34:07;;;;;;;34.95;19.87;;;;;;;;;;4405750;32;20034;-78
2022/03/26 12:36:34;;;;;;;34.83;19.50;;;;;;;;;;4405182;32;20075;-76
2022/03/26 12:39:00;;;;;;;34.13;17.85;;;;;;;;;;4389845;32;20100;-79
2022/03/26 12:41:25;;;;;;;33.17;18.10;;;;;;;;;;4388859;32;20356;-74
2022/03/26 12:43:54;;;;;;;29.00;16.85;;;;;;;;;;4395725;32;20090;-75
2022/03/26 12:46:19;;;;;;;25.85;14.10;;;;;;;;;;4390379;32;20082;-78
2022/03/26 12:48:45;;;;;;;28.27;15.07;;;;;;;;;;4389770;32;20536;-79
2022/03/26 12:51:11;;;;;;;30.77;15.65;;;;;;;;;;4393728;32;20383;-78
2022/03/26 12:53:38;;;;;;;27.05;15.15;;;;;;;;;;4405689;32;20034;-79
2022/03/26 12:56:04;;;;;;;29.17;16.23;;;;;;;;;;4405535;32;20049;-78
2022/03/26 12:59:02;;;;;;;30.60;17.08;;;;;;;;;;4405420;32;20407;-79
2022/03/26 13:01:22;;;;;;;29.05;16.23;;;;;;;;;;4403661;32;20023;-77
2022/03/26 13:03:47;;;;;;;31.12;15.45;;;;;;;;;;4404461;32;20031;-76
2022/03/26 13:06:14;;;;;;;36.45;18.48;;;;;;;;;;4389995;32;20060;-79
2022/03/26 13:08:46;;;;;;;35.08;18.52;;;;;;;;;;4390000;32;20050;-79
2022/03/26 13:11:11;;;;;;;30.42;17.17;;;;;;;;;;4390531;32;20049;-74
2022/03/26 13:13:46;;;;;;;33.92;18.33;;;;;;;;;;4389851;32;20030;-78
2022/03/26 13:16:14;;;;;;;36.17;19.77;;;;;;;;;;4389686;32;20073;-78
2022/03/26 13:18:40;;;;;;;37.08;20.62;;;;;;;;;;4390056;32;20061;-78
2022/03/26 13:21:05;;;;;;;39.03;20.10;;;;;;;;;;4389453;32;20463;-79
2022/03/26 13:23:31;;;;;;;33.60;19.62;;;;;;;;;;4389784;32;20027;-77
2022/03/26 13:25:56;;;;;;;42.17;22.42;;;;;;;;;;4389844;32;20459;-77
2022/03/26 13:28:23;;;;;;;39.28;21.90;;;;;;;;;;4389653;32;20084;-75
2022/03/26 13:30:53;;;;;;;30.80;18.27;;;;;;;;;;4390468;32;20066;-76
2022/03/26 13:33:32;;;;;;;34.33;18.25;;;;;;;;;;4396077;32;20068;-78
2022/03/26 13:35:58;;;;;;;29.27;16.37;;;;;;;;;;4405375;32;20018;-78
2022/03/26 13:38:27;;;;;;;28.92;17.00;;;;;;;;;;4404749;32;20160;-76
2022/03/26 13:40:53;;;;;;;27.77;16.55;;;;;;;;;;4404767;32;20121;-77
2022/03/26 13:43:18;;;;;;;27.77;17.10;;;;;;;;;;4404726;32;20375;-77
2022/03/26 13:45:44;;;;;;;31.55;16.25;;;;;;;;;;4405809;32;20038;-77
2022/03/26 13:48:09;;;;;;;31.52;15.43;;;;;;;;;;4403351;32;20079;-72
2022/03/26 13:50:35;;;;;;;27.20;16.23;;;;;;;;;;4404694;32;20469;-78
2022/03/26 13:53:01;;;;;;;30.98;18.08;;;;;;;;;;4404414;32;20049;-75
2022/03/26 13:55:28;;;;;;;29.25;17.45;;;;;;;;;;4404427;32;20034;-76
2022/03/26 13:57:54;;;;;;;31.75;17.37;;;;;;;;;;4403758;32;20438;-74
2022/03/26 14:00:22;;;;;;;31.23;17.95;;;;;;;;;;4404967;32;20095;-77
2022/03/26 14:02:47;;;;;;;32.63;17.77;;;;;;;;;;4403618;32;20030;-74
2022/03/26 14:05:25;;;;;;;38.03;17.77;;;;;;;;;;4399003;32;20018;-76
2022/03/26 14:07:51;;;;;;;35.15;19.17;;;;;;;;;;4404330;32;20042;-75
2022/03/26 14:10:16;;;;;;;38.42;20.85;;;;;;;;;;4405632;32;20458;-74
2022/03/26 14:12:41;;;;;;;39.45;19.67;;;;;;;;;;4403887;32;20038;-75
2022/03/26 14:15:09;;;;;;;40.10;20.58;;;;;;;;;;4404793;32;20409;-76
2022/03/26 14:17:35;;;;;;;33.45;20.73;;;;;;;;;;4404413;32;20105;-75
2022/03/26 14:20:00;;;;;;;39.47;21.83;;;;;;;;;;4403721;32;20076;-75
2022/03/26 14:22:25;;;;;;;42.95;23.85;;;;;;;;;;4406645;32;20026;-76
2022/03/26 14:24:50;;;;;;;39.40;23.15;;;;;;;;;;4407276;32;20122;-76
2022/03/26 14:27:16;;;;;;;46.60;24.83;;;;;;;;;;4406987;32;20109;-77
2022/03/26 14:29:41;;;;;;;41.13;24.92;;;;;;;;;;4407027;32;20483;-73
2022/03/26 14:32:06;;;;;;;42.42;25.37;;;;;;;;;;4405851;32;20412;-75
2022/03/26 14:34:32;;;;;;;43.65;24.50;;;;;;;;;;4406714;32;20061;-76
2022/03/26 14:36:57;;;;;;;49.90;23.35;;;;;;;;;;4404316;32;20406;-76
2022/03/26 14:39:22;;;;;;;37.05;22.35;;;;;;;;;;4402119;32;20490;-75
2022/03/26 14:41:47;;;;;;;39.70;23.55;;;;;;;;;;4403842;32;20121;-76
2022/03/26 14:44:13;;;;;;;35.17;19.60;;;;;;;;;;4406302;32;20034;-76
2022/03/26 14:46:39;;;;;;;45.97;21.08;;;;;;;;;;4393711;32;20161;-75
2022/03/26 14:49:04;;;;;;;35.60;20.75;;;;;;;;;;4405480;32;20076;-76
2022/03/26 14:51:29;;;;;;;37.00;21.67;;;;;;;;;;4404098;32;20030;-74
2022/03/26 14:53:54;;;;;;;39.55;22.70;;;;;;;;;;4406755;32;20069;-77
2022/03/26 14:56:19;;;;;;;34.80;21.42;;;;;;;;;;4398855;32;20049;-74
2022/03/26 14:58:45;;;;;;;39.77;23.27;;;;;;;;;;4391405;32;20027;-77